createdAt,value
2022-08-28T00:00:30.760Z,17.12
2022-08-28T00:02:58.259Z,17.14
2022-08-28T00:05:29.894Z,17.21
2022-08-28T00:07:57.526Z,17.17
2022-08-28T00:10:25.991Z,17.19
2022-08-28T00:12:55.666Z,17.23
2022-08-28T00:15:33.803Z,17.18
2022-08-28T00:18:03.616Z,17.10
2022-08-28T00:20:32.899Z,17.01
2022-08-28T00:23:00.827Z,16.99
2022-08-28T00:25:30.429Z,17.02
2022-08-28T00:28:05.305Z,17.02
2022-08-28T00:30:48.280Z,16.98
2022-08-28T00:33:25.282Z,16.95
2022-08-28T00:35:52.529Z,16.90
2022-08-28T00:38:21.819Z,16.90
2022-08-28T00:40:53.334Z,16.91
2022-08-28T00:43:26.515Z,16.86
2022-08-28T00:45:53.274Z,16.82
2022-08-28T00:48:19.781Z,16.80
2022-08-28T00:51:04.882Z,16.78
2022-08-28T00:53:32.981Z,16.79
2022-08-28T00:56:10.212Z,16.84
2022-08-28T00:58:44.923Z,16.85
2022-08-28T01:01:13.621Z,16.80
2022-08-28T01:03:41.489Z,16.80
2022-08-28T01:06:09.158Z,16.90
2022-08-28T01:08:40.666Z,16.97
2022-08-28T01:11:09.785Z,17.02
2022-08-28T01:13:41.469Z,17.07
2022-08-28T01:16:09.420Z,17.14
2022-08-28T01:18:35.955Z,17.14
2022-08-28T01:21:27.774Z,17.14
2022-08-28T01:24:10.210Z,17.11
2022-08-28T01:26:38.271Z,17.08
2022-08-28T01:29:05.524Z,17.16
2022-08-28T01:31:32.418Z,17.20
2022-08-28T01:34:01.978Z,17.21
2022-08-28T01:36:30.328Z,17.21
2022-08-28T01:39:05.003Z,17.20
2022-08-28T01:41:31.577Z,17.20
2022-08-28T01:43:58.168Z,17.20
2022-08-28T01:46:24.786Z,17.21
2022-08-28T01:48:51.389Z,17.22
2022-08-28T01:51:22.673Z,17.27
2022-08-28T01:53:51.977Z,17.27
2022-08-28T01:56:19.183Z,17.18
2022-08-28T01:58:48.083Z,17.17
2022-08-28T02:01:21.445Z,17.11
2022-08-28T02:03:49.447Z,17.14
2022-08-28T02:06:17.726Z,17.16
2022-08-28T02:08:44.837Z,17.18
2022-08-28T02:11:12.273Z,17.20
2022-08-28T02:13:40.227Z,17.20
2022-08-28T02:16:10.431Z,17.20
2022-08-28T02:18:38.043Z,17.18
2022-08-28T02:21:06.816Z,17.22
2022-08-28T02:23:33.712Z,17.18
2022-08-28T02:26:00.708Z,17.16
2022-08-28T02:28:27.902Z,17.15
2022-08-28T02:30:54.586Z,17.15
2022-08-28T02:33:21.186Z,17.20
2022-08-28T02:35:49.286Z,17.17
2022-08-28T02:38:17.179Z,17.17
2022-08-28T02:40:45.472Z,17.14
2022-08-28T02:43:11.966Z,17.11
2022-08-28T02:45:38.499Z,17.14
2022-08-28T02:48:05.371Z,17.20
2022-08-28T02:50:42.219Z,17.24
2022-08-28T02:53:08.730Z,17.27
2022-08-28T02:55:35.275Z,17.14
2022-08-28T02:58:01.816Z,17.07
2022-08-28T03:00:28.792Z,17.08
2022-08-28T03:02:55.401Z,17.05
2022-08-28T03:05:27.093Z,17.01
2022-08-28T03:07:54.047Z,17.04
2022-08-28T03:10:21.570Z,17.02
2022-08-28T03:12:48.136Z,17.00
2022-08-28T03:15:14.800Z,17.03
2022-08-28T03:17:41.937Z,17.02
2022-08-28T03:20:11.725Z,17.01
2022-08-28T03:22:58.090Z,16.99
2022-08-28T03:25:26.488Z,16.88
2022-08-28T03:27:54.071Z,16.86
2022-08-28T03:30:23.036Z,16.80
2022-08-28T03:32:50.602Z,16.79
2022-08-28T03:35:17.782Z,16.81
2022-08-28T03:37:44.432Z,16.79
2022-08-28T03:40:12.231Z,16.79
2022-08-28T03:42:38.874Z,16.82
2022-08-28T03:45:09.723Z,16.81
2022-08-28T03:47:41.768Z,16.71
2022-08-28T03:50:12.335Z,16.58
2022-08-28T03:52:40.864Z,16.37
2022-08-28T03:55:11.439Z,16.28
2022-08-28T03:57:38.886Z,16.33
2022-08-28T04:00:13.150Z,16.36
2022-08-28T04:02:44.258Z,16.41
2022-08-28T04:05:11.911Z,16.42
2022-08-28T04:07:40.020Z,16.45
2022-08-28T04:10:07.896Z,16.25
2022-08-28T04:12:35.446Z,16.17
2022-08-28T04:15:02.894Z,16.04
2022-08-28T04:17:29.765Z,16.04
2022-08-28T04:19:56.278Z,16.02
2022-08-28T04:22:22.921Z,16.06
2022-08-28T04:24:50.354Z,16.13
2022-08-28T04:27:16.852Z,16.13
2022-08-28T04:29:43.347Z,16.05
2022-08-28T04:32:09.970Z,15.99
2022-08-28T04:34:38.485Z,15.96
2022-08-28T04:37:05.433Z,15.85
2022-08-28T04:39:33.046Z,15.84
2022-08-28T04:42:00.366Z,15.81
2022-08-28T04:44:27.333Z,15.77
2022-08-28T04:46:54.393Z,15.65
2022-08-28T04:49:22.926Z,15.67
2022-08-28T04:51:52.515Z,15.60
2022-08-28T04:54:19.634Z,15.47
2022-08-28T04:56:46.678Z,15.49
2022-08-28T04:59:13.560Z,15.49
2022-08-28T05:01:42.561Z,15.44
2022-08-28T05:04:11.446Z,15.51
2022-08-28T05:06:46.015Z,15.53
2022-08-28T05:09:16.844Z,15.50
2022-08-28T05:11:44.198Z,15.43
2022-08-28T05:14:15.749Z,15.41
2022-08-28T05:16:47.571Z,15.44
2022-08-28T05:19:15.985Z,15.47
2022-08-28T05:21:42.622Z,15.48
2022-08-28T05:24:10.415Z,15.48
2022-08-28T05:26:38.908Z,15.50
2022-08-28T05:29:08.362Z,15.53
2022-08-28T05:31:35.520Z,15.51
2022-08-28T05:34:04.542Z,15.49
2022-08-28T05:36:36.726Z,15.43
2022-08-28T05:39:08.506Z,15.41
2022-08-28T05:41:36.655Z,15.41
2022-08-28T05:44:08.620Z,15.42
2022-08-28T05:46:39.574Z,15.50
2022-08-28T05:49:10.008Z,15.59
2022-08-28T05:51:40.843Z,15.55
2022-08-28T05:54:07.925Z,15.55
2022-08-28T05:56:39.222Z,15.62
2022-08-28T05:59:08.332Z,15.62
2022-08-28T06:01:41.434Z,15.52
2022-08-28T06:04:14.448Z,15.51
2022-08-28T06:06:42.615Z,15.63
2022-08-28T06:09:26.597Z,15.76
2022-08-28T06:11:58.827Z,15.81
2022-08-28T06:14:25.938Z,15.87
2022-08-28T06:16:55.706Z,15.91
2022-08-28T06:19:26.152Z,15.85
2022-08-28T06:22:00.212Z,15.90
2022-08-28T06:24:29.186Z,15.79
2022-08-28T06:26:58.487Z,15.59
2022-08-28T06:29:27.933Z,15.59
2022-08-28T06:31:58.927Z,15.60
2022-08-28T06:34:27.398Z,15.59
2022-08-28T06:36:54.720Z,15.64
2022-08-28T06:39:22.491Z,15.74
2022-08-28T06:41:49.156Z,15.81
2022-08-28T06:44:19.897Z,15.79
2022-08-28T06:46:53.937Z,15.80
2022-08-28T06:49:21.393Z,15.59
2022-08-28T06:51:47.955Z,15.55
2022-08-28T06:54:21.415Z,15.63
2022-08-28T06:56:49.447Z,15.77
2022-08-28T06:59:15.955Z,15.81
2022-08-28T07:01:42.570Z,15.82
2022-08-28T07:04:12.014Z,15.89
2022-08-28T07:06:43.095Z,15.91
2022-08-28T07:09:11.606Z,15.94
2022-08-28T07:11:39.237Z,15.84
2022-08-28T07:14:06.832Z,15.67
2022-08-28T07:16:40.128Z,15.58
2022-08-28T07:19:11.085Z,15.50
2022-08-28T07:21:44.554Z,15.78
2022-08-28T07:24:15.058Z,15.89
2022-08-28T07:26:44.274Z,15.91
2022-08-28T07:29:12.174Z,15.80
2022-08-28T07:31:44.585Z,15.80
2022-08-28T07:34:14.044Z,15.91
2022-08-28T07:36:42.351Z,15.94
2022-08-28T07:39:11.403Z,15.92
2022-08-28T07:41:42.321Z,15.98
2022-08-28T07:44:29.919Z,16.07
2022-08-28T07:46:59.676Z,16.01
2022-08-28T07:49:27.210Z,16.06
2022-08-28T07:51:54.390Z,16.03
2022-08-28T07:54:22.366Z,16.00
2022-08-28T07:56:49.691Z,16.04
2022-08-28T07:59:17.475Z,16.17
2022-08-28T08:01:48.449Z,16.37
2022-08-28T08:04:17.153Z,16.52
2022-08-28T08:06:44.944Z,16.72
2022-08-28T08:09:15.507Z,16.91
2022-08-28T08:11:42.884Z,16.83
2022-08-28T08:14:10.603Z,16.84
2022-08-28T08:16:41.557Z,16.64
2022-08-28T08:19:10.454Z,16.65
2022-08-28T08:21:37.935Z,16.71
2022-08-28T08:24:05.161Z,16.72
2022-08-28T08:26:34.066Z,16.64
2022-08-28T08:29:00.863Z,16.55
2022-08-28T08:31:35.568Z,16.54
2022-08-28T08:34:04.812Z,16.63
2022-08-28T08:36:34.540Z,16.68
2022-08-28T08:39:02.126Z,16.71
2022-08-28T08:41:48.231Z,16.66
2022-08-28T08:44:42.370Z,16.66
2022-08-28T08:47:38.223Z,16.65
2022-08-28T08:50:14.774Z,16.64
2022-08-28T08:53:06.599Z,16.65
2022-08-28T08:55:46.068Z,16.55
2022-08-28T08:58:25.572Z,16.61
2022-08-28T09:01:14.408Z,16.65
2022-08-28T09:03:53.842Z,16.78
2022-08-28T09:06:43.915Z,16.78
2022-08-28T09:09:57.460Z,16.85
2022-08-28T09:12:28.590Z,16.82
2022-08-28T09:15:09.694Z,16.78
2022-08-28T09:17:44.739Z,16.86
2022-08-28T09:20:16.101Z,16.98
2022-08-28T09:22:47.041Z,17.09
2022-08-28T09:25:55.386Z,17.17
2022-08-28T09:28:31.776Z,17.17
2022-08-28T09:31:13.285Z,17.06
2022-08-28T09:33:45.606Z,17.24
2022-08-28T09:36:36.756Z,17.26
2022-08-28T09:39:11.193Z,17.37
2022-08-28T09:42:04.619Z,17.54
2022-08-28T09:44:31.632Z,17.44
2022-08-28T09:46:59.270Z,17.57
2022-08-28T09:49:30.492Z,17.64
2022-08-28T09:52:01.617Z,17.74
2022-08-28T09:54:40.204Z,17.80
2022-08-28T09:57:07.949Z,17.87
2022-08-28T09:59:34.446Z,17.97
2022-08-28T10:02:37.467Z,18.07
2022-08-28T10:05:16.217Z,18.06
2022-08-28T10:07:56.804Z,18.18
2022-08-28T10:10:50.275Z,18.49
2022-08-28T10:13:41.060Z,18.44
2022-08-28T10:16:52.926Z,18.36
2022-08-28T10:19:46.307Z,18.31
2022-08-28T10:22:51.961Z,18.14
2022-08-28T10:26:06.790Z,18.23
2022-08-28T10:28:56.536Z,18.23
2022-08-28T10:31:50.914Z,18.37
2022-08-28T10:35:01.562Z,18.51
2022-08-28T10:37:49.434Z,18.63
2022-08-28T10:40:30.490Z,18.53
2022-08-28T10:43:06.049Z,18.57
2022-08-28T10:45:34.922Z,18.90
2022-08-28T10:48:17.330Z,19.00
2022-08-28T10:50:50.973Z,19.06
2022-08-28T10:53:34.537Z,19.10
2022-08-28T10:56:35.894Z,19.26
2022-08-28T10:59:02.675Z,19.34
2022-08-28T11:01:44.669Z,19.38
2022-08-28T11:04:25.355Z,19.39
2022-08-28T11:07:14.114Z,19.43
2022-08-28T11:09:48.839Z,19.58
2022-08-28T11:12:19.569Z,19.71
2022-08-28T11:14:50.949Z,19.76
2022-08-28T11:17:27.572Z,19.93
2022-08-28T11:20:09.418Z,19.90
2022-08-28T11:22:49.963Z,20.02
2022-08-28T11:25:32.568Z,19.78
2022-08-28T11:28:17.699Z,19.80
2022-08-28T11:30:58.842Z,19.90
2022-08-28T11:33:41.993Z,19.96
2022-08-28T11:36:33.256Z,20.29
2022-08-28T11:39:20.673Z,20.36
2022-08-28T11:42:35.553Z,20.61
2022-08-28T11:45:02.571Z,20.71
2022-08-28T11:47:45.873Z,20.87
2022-08-28T11:50:26.135Z,21.02
2022-08-28T11:53:56.040Z,21.13
2022-08-28T11:56:48.210Z,21.41
2022-08-28T11:59:39.306Z,21.51
2022-08-28T12:02:39.951Z,21.64
2022-08-28T12:05:17.669Z,21.74
2022-08-28T12:07:49.999Z,21.79
2022-08-28T12:10:22.570Z,21.93
2022-08-28T12:12:54.055Z,21.75
2022-08-28T12:15:33.361Z,21.65
2022-08-28T12:18:35.630Z,21.49
2022-08-28T12:21:16.315Z,21.43
2022-08-28T12:24:17.147Z,21.47
2022-08-28T12:26:53.211Z,21.53
2022-08-28T12:29:37.469Z,21.53
2022-08-28T12:32:16.265Z,21.60
2022-08-28T12:34:57.673Z,21.41
2022-08-28T12:37:57.215Z,21.50
2022-08-28T12:40:29.488Z,21.42
2022-08-28T12:43:10.117Z,21.26
2022-08-28T12:45:48.045Z,21.33
2022-08-28T12:48:33.283Z,21.62
2022-08-28T12:51:07.799Z,21.73
2022-08-28T12:53:42.407Z,21.55
2022-08-28T12:56:13.324Z,21.49
2022-08-28T12:58:41.998Z,21.50
2022-08-28T13:01:23.486Z,21.55
2022-08-28T13:04:02.690Z,21.50
2022-08-28T13:06:36.558Z,21.48
2022-08-28T13:09:18.664Z,21.50
2022-08-28T13:11:49.805Z,21.53
2022-08-28T13:14:46.291Z,21.69
2022-08-28T13:17:15.318Z,21.79
2022-08-28T13:19:42.451Z,21.87
2022-08-28T13:22:40.542Z,21.87
2022-08-28T13:25:08.457Z,22.02
2022-08-28T13:27:36.155Z,21.86
2022-08-28T13:30:19.916Z,21.98
2022-08-28T13:33:20.212Z,22.02
2022-08-28T13:35:46.799Z,21.85
2022-08-28T13:38:19.307Z,21.94
2022-08-28T13:41:02.083Z,22.02
2022-08-28T13:43:45.013Z,21.97
2022-08-28T13:46:11.694Z,21.91
2022-08-28T13:48:39.281Z,21.93
2022-08-28T13:51:12.045Z,22.01
2022-08-28T13:53:46.653Z,22.04
2022-08-28T13:56:13.426Z,22.06
2022-08-28T13:58:39.934Z,22.16
2022-08-28T14:01:06.975Z,22.09
2022-08-28T14:03:36.323Z,22.00
2022-08-28T14:06:16.832Z,21.98
2022-08-28T14:08:45.707Z,22.04
2022-08-28T14:11:15.219Z,22.00
2022-08-28T14:13:47.089Z,21.93
2022-08-28T14:16:24.807Z,21.94
2022-08-28T14:18:53.190Z,21.97
2022-08-28T14:21:20.914Z,21.92
2022-08-28T14:23:47.406Z,21.92
2022-08-28T14:26:13.966Z,22.01
2022-08-28T14:28:40.467Z,22.03
2022-08-28T14:31:11.023Z,21.88
2022-08-28T14:33:40.455Z,21.85
2022-08-28T14:36:18.691Z,21.78
2022-08-28T14:38:45.271Z,21.67
2022-08-28T14:41:12.261Z,21.69
2022-08-28T14:43:38.874Z,21.61
2022-08-28T14:46:10.971Z,21.63
2022-08-28T14:48:38.106Z,21.52
2022-08-28T14:51:04.704Z,21.48
2022-08-28T14:53:31.237Z,21.37
2022-08-28T14:55:57.793Z,21.38
2022-08-28T14:58:24.436Z,21.43
2022-08-28T15:00:52.729Z,21.38
2022-08-28T15:03:20.722Z,21.44
2022-08-28T15:05:47.637Z,21.52
2022-08-28T15:08:17.435Z,21.61
2022-08-28T15:10:45.142Z,21.70
2022-08-28T15:13:12.719Z,21.88
2022-08-28T15:15:42.091Z,21.93
2022-08-28T15:18:10.668Z,22.17
2022-08-28T15:20:45.304Z,22.06
2022-08-28T15:23:14.662Z,22.12
2022-08-28T15:25:41.588Z,22.29
2022-08-28T15:28:08.665Z,22.37
2022-08-28T15:30:35.600Z,22.48
2022-08-28T15:33:02.313Z,22.49
2022-08-28T15:35:28.893Z,22.58
2022-08-28T15:37:55.425Z,22.67
2022-08-28T15:40:40.842Z,22.67
2022-08-28T15:43:07.489Z,22.61
2022-08-28T15:45:41.809Z,22.26
2022-08-28T15:48:09.715Z,22.23
2022-08-28T15:50:37.254Z,22.23
2022-08-28T15:53:06.150Z,22.07
2022-08-28T15:55:33.928Z,21.99
2022-08-28T15:58:03.438Z,21.79
2022-08-28T16:00:30.262Z,21.62
2022-08-28T16:02:59.878Z,21.62
2022-08-28T16:05:39.740Z,21.54
2022-08-28T16:08:09.611Z,21.53
2022-08-28T16:10:36.629Z,21.51
2022-08-28T16:13:04.601Z,21.54
2022-08-28T16:15:31.240Z,21.52
2022-08-28T16:17:57.784Z,21.55
2022-08-28T16:20:25.259Z,21.62
2022-08-28T16:22:52.880Z,21.53
2022-08-28T16:25:19.574Z,21.36
2022-08-28T16:27:46.088Z,21.37
2022-08-28T16:30:15.856Z,21.58
2022-08-28T16:32:46.886Z,21.49
2022-08-28T16:35:15.671Z,21.42
2022-08-28T16:37:43.344Z,21.39
2022-08-28T16:40:11.781Z,21.35
2022-08-28T16:42:41.988Z,21.22
2022-08-28T16:45:17.857Z,21.09
2022-08-28T16:47:44.408Z,21.07
2022-08-28T16:50:14.007Z,21.28
2022-08-28T16:52:41.294Z,21.24
2022-08-28T16:55:10.551Z,21.19
2022-08-28T16:57:37.919Z,21.17
2022-08-28T17:00:11.705Z,21.08
2022-08-28T17:02:40.952Z,20.95
2022-08-28T17:05:08.291Z,20.85
2022-08-28T17:07:35.218Z,21.05
2022-08-28T17:10:04.798Z,20.98
2022-08-28T17:12:31.322Z,20.96
2022-08-28T17:14:57.991Z,20.96
2022-08-28T17:17:24.656Z,20.89
2022-08-28T17:19:51.208Z,20.78
2022-08-28T17:22:32.691Z,20.68
2022-08-28T17:25:03.534Z,20.55
2022-08-28T17:27:32.076Z,20.39
2022-08-28T17:30:01.222Z,20.35
2022-08-28T17:32:28.927Z,20.38
2022-08-28T17:34:55.487Z,20.36
2022-08-28T17:37:23.658Z,20.27
2022-08-28T17:39:50.697Z,20.19
2022-08-28T17:42:17.262Z,20.19
2022-08-28T17:44:43.940Z,20.09
2022-08-28T17:47:11.823Z,20.06
2022-08-28T17:49:39.514Z,20.07
2022-08-28T17:52:06.364Z,20.01
2022-08-28T17:54:33.231Z,19.99
2022-08-28T17:56:59.768Z,20.02
2022-08-28T17:59:27.754Z,19.93
2022-08-28T18:01:54.882Z,19.77
2022-08-28T18:04:24.624Z,19.69
2022-08-28T18:06:54.320Z,19.62
2022-08-28T18:09:23.440Z,19.63
2022-08-28T18:11:50.814Z,19.59
2022-08-28T18:14:17.887Z,19.48
2022-08-28T18:16:44.876Z,19.43
2022-08-28T18:19:11.905Z,19.30
2022-08-28T18:21:39.836Z,19.23
2022-08-28T18:24:07.604Z,19.13
2022-08-28T18:26:34.478Z,19.02
2022-08-28T18:29:01.087Z,18.91
2022-08-28T18:31:27.694Z,18.89
2022-08-28T18:33:54.324Z,18.76
2022-08-28T18:36:22.976Z,18.60
2022-08-28T18:38:51.013Z,18.46
2022-08-28T18:41:20.014Z,18.34
2022-08-28T18:43:47.598Z,18.22
2022-08-28T18:46:14.796Z,18.11
2022-08-28T18:48:42.199Z,18.01
2022-08-28T18:51:11.650Z,17.87
2022-08-28T18:53:38.842Z,17.78
2022-08-28T18:56:08.904Z,17.67
2022-08-28T18:58:37.126Z,17.59
2022-08-28T19:01:03.770Z,17.48
2022-08-28T19:03:31.026Z,17.48
2022-08-28T19:05:57.649Z,17.37
2022-08-28T19:08:25.372Z,17.27
2022-08-28T19:10:52.415Z,17.25
2022-08-28T19:13:19.499Z,17.10
2022-08-28T19:15:52.457Z,16.90
2022-08-28T19:18:20.077Z,16.76
2022-08-28T19:20:47.414Z,16.63
2022-08-28T19:23:17.602Z,16.46
2022-08-28T19:25:45.563Z,16.44
2022-08-28T19:28:12.151Z,16.45
2022-08-28T19:30:38.782Z,16.38
2022-08-28T19:33:05.887Z,16.25
2022-08-28T19:35:33.719Z,16.18
2022-08-28T19:38:00.426Z,16.17
2022-08-28T19:40:27.483Z,16.18
2022-08-28T19:42:54.269Z,16.14
2022-08-28T19:45:21.286Z,16.04
2022-08-28T19:47:48.195Z,15.95
2022-08-28T19:50:16.003Z,15.97
2022-08-28T19:52:44.827Z,15.85
2022-08-28T19:55:24.997Z,15.78
2022-08-28T19:57:52.052Z,15.83
2022-08-28T20:00:28.095Z,15.81
2022-08-28T20:02:55.376Z,15.69
2022-08-28T20:05:22.991Z,15.54
2022-08-28T20:07:50.798Z,15.49
2022-08-28T20:10:18.363Z,15.48
2022-08-28T20:12:48.667Z,15.47
2022-08-28T20:15:18.429Z,15.38
2022-08-28T20:17:50.004Z,15.25
2022-08-28T20:20:23.771Z,14.96
2022-08-28T20:22:54.076Z,14.70
2022-08-28T20:25:21.663Z,14.86
2022-08-28T20:27:48.216Z,14.83
2022-08-28T20:30:14.919Z,14.77
2022-08-28T20:32:41.607Z,14.74
2022-08-28T20:35:11.971Z,14.71
2022-08-28T20:37:45.323Z,14.58
2022-08-28T20:40:17.051Z,14.53
2022-08-28T20:42:44.636Z,14.51
2022-08-28T20:45:13.269Z,14.61
2022-08-28T20:47:39.765Z,14.63
2022-08-28T20:50:07.287Z,14.55
2022-08-28T20:52:33.815Z,14.44
2022-08-28T20:55:00.597Z,14.37
2022-08-28T20:57:27.393Z,14.43
2022-08-28T20:59:54.176Z,14.48
2022-08-28T21:02:24.925Z,14.32
2022-08-28T21:04:52.359Z,14.18
2022-08-28T21:07:23.051Z,14.13
2022-08-28T21:10:04.168Z,14.02
2022-08-28T21:12:33.761Z,13.79
2022-08-28T21:15:00.468Z,13.64
2022-08-28T21:17:30.201Z,13.54
2022-08-28T21:20:01.315Z,13.43
2022-08-28T21:22:31.287Z,13.47
2022-08-28T21:24:57.879Z,13.48
2022-08-28T21:27:24.791Z,13.54
2022-08-28T21:29:54.433Z,13.46
2022-08-28T21:32:20.967Z,13.49
2022-08-28T21:34:47.466Z,13.51
2022-08-28T21:37:15.345Z,13.48
2022-08-28T21:39:41.876Z,13.48
2022-08-28T21:42:08.459Z,13.57
2022-08-28T21:44:34.968Z,13.45
2022-08-28T21:47:01.467Z,13.27
2022-08-28T21:49:28.008Z,13.08
2022-08-28T21:51:54.720Z,13.08
2022-08-28T21:54:22.990Z,13.13
2022-08-28T21:56:58.738Z,13.15
2022-08-28T21:59:30.278Z,13.15
2022-08-28T22:02:01.167Z,13.09
2022-08-28T22:04:27.799Z,13.16
2022-08-28T22:06:54.301Z,13.23
2022-08-28T22:09:20.814Z,13.22
2022-08-28T22:11:47.384Z,13.09
2022-08-28T22:14:13.963Z,12.87
2022-08-28T22:16:40.521Z,12.73
2022-08-28T22:19:07.041Z,12.52
2022-08-28T22:21:52.381Z,12.55
2022-08-28T22:24:18.981Z,12.56
2022-08-28T22:26:45.802Z,12.52
2022-08-28T22:29:12.649Z,12.43
2022-08-28T22:31:45.503Z,12.44
2022-08-28T22:34:13.048Z,12.50
2022-08-28T22:36:39.867Z,12.50
2022-08-28T22:39:06.431Z,12.39
2022-08-28T22:41:33.159Z,12.31
2022-08-28T22:44:00.167Z,12.23
2022-08-28T22:46:27.803Z,12.19
2022-08-28T22:48:54.559Z,12.23
2022-08-28T22:51:21.344Z,12.18
2022-08-28T22:53:48.550Z,12.19
2022-08-28T22:56:17.166Z,12.23
2022-08-28T22:58:44.371Z,12.31
2022-08-28T23:01:20.506Z,12.36
2022-08-28T23:03:47.754Z,12.30
2022-08-28T23:06:14.529Z,12.20
2022-08-28T23:08:41.310Z,12.15
2022-08-28T23:11:09.006Z,12.13
2022-08-28T23:13:35.923Z,12.09
2022-08-28T23:16:03.439Z,12.10
2022-08-28T23:18:41.501Z,12.00
2022-08-28T23:21:23.668Z,11.92
2022-08-28T23:23:52.869Z,11.94
2022-08-28T23:26:19.547Z,12.02
2022-08-28T23:28:46.452Z,11.93
2022-08-28T23:31:13.151Z,11.89
2022-08-28T23:33:39.819Z,11.93
2022-08-28T23:36:06.745Z,12.08
2022-08-28T23:38:42.871Z,12.24
2022-08-28T23:41:11.217Z,12.23
2022-08-28T23:43:38.432Z,12.02
2022-08-28T23:46:06.435Z,11.82
2022-08-28T23:48:33.275Z,11.68
2022-08-28T23:51:02.108Z,11.67
2022-08-28T23:53:29.309Z,11.74
2022-08-28T23:55:57.353Z,11.79
2022-08-28T23:58:28.478Z,11.68
